createdAt,value
2023-04-04T00:01:09.174Z,1.33
2023-04-04T00:03:37.825Z,1.30
2023-04-04T00:06:07.839Z,1.15
2023-04-04T00:08:36.079Z,1.25
2023-04-04T00:11:06.567Z,1.20
2023-04-04T00:13:35.306Z,1.63
2023-04-04T00:16:04.268Z,1.90
2023-04-04T00:18:32.874Z,1.25
2023-04-04T00:21:01.721Z,1.83
2023-04-04T00:23:30.148Z,1.77
2023-04-04T00:25:58.914Z,1.73
2023-04-04T00:28:27.370Z,1.98
2023-04-04T00:30:56.380Z,1.40
2023-04-04T00:33:25.002Z,1.65
2023-04-04T00:35:55.010Z,1.55
2023-04-04T00:38:23.560Z,1.70
2023-04-04T00:40:52.481Z,1.80
2023-04-04T00:43:21.361Z,1.58
2023-04-04T00:45:52.477Z,1.98
2023-04-04T00:48:21.629Z,1.42
2023-04-04T00:50:50.670Z,1.80
2023-04-04T00:53:19.207Z,2.05
2023-04-04T00:55:48.058Z,1.92
2023-04-04T00:58:16.436Z,1.52
2023-04-04T01:00:45.178Z,1.80
2023-04-04T01:03:14.643Z,1.90
2023-04-04T01:05:43.386Z,1.65
2023-04-04T01:08:12.257Z,2.13
2023-04-04T01:10:41.187Z,1.50
2023-04-04T01:13:09.981Z,1.92
2023-04-04T01:15:38.783Z,1.80
2023-04-04T01:18:07.866Z,1.73
2023-04-04T01:20:42.754Z,1.88
2023-04-04T01:23:11.542Z,2.05
2023-04-04T01:25:40.731Z,1.90
2023-04-04T01:28:14.835Z,1.65
2023-04-04T01:30:44.856Z,1.55
2023-04-04T01:33:23.982Z,2.00
2023-04-04T01:36:04.986Z,1.88
2023-04-04T01:38:44.870Z,2.08
2023-04-04T01:41:14.945Z,1.73
2023-04-04T01:43:50.023Z,2.08
2023-04-04T01:46:19.007Z,1.92
2023-04-04T01:48:50.031Z,2.47
2023-04-04T01:51:24.133Z,2.30
2023-04-04T01:53:54.197Z,1.80
2023-04-04T01:56:23.205Z,2.17
2023-04-04T01:58:52.636Z,2.70
2023-04-04T02:01:21.520Z,2.00
2023-04-04T02:03:49.996Z,1.70
2023-04-04T02:06:18.887Z,1.80
2023-04-04T02:08:47.394Z,2.08
2023-04-04T02:11:16.519Z,2.08
2023-04-04T02:13:44.929Z,1.63
2023-04-04T02:16:17.420Z,2.05
2023-04-04T02:18:46.162Z,1.92
2023-04-04T02:21:14.963Z,1.83
2023-04-04T02:23:43.318Z,3.20
2023-04-04T02:26:12.114Z,2.00
2023-04-04T02:28:40.472Z,1.98
2023-04-04T02:31:09.216Z,1.48
2023-04-04T02:33:37.990Z,2.15
2023-04-04T02:36:09.139Z,1.48
2023-04-04T02:38:38.515Z,1.40
2023-04-04T02:41:07.962Z,1.95
2023-04-04T02:43:37.841Z,2.03
2023-04-04T02:46:20.649Z,1.48
2023-04-04T02:48:52.440Z,1.70
2023-04-04T02:51:21.863Z,2.05
2023-04-04T02:53:50.241Z,1.77
2023-04-04T02:56:24.611Z,2.08
2023-04-04T02:58:53.382Z,1.90
2023-04-04T03:01:22.287Z,1.35
2023-04-04T03:03:50.892Z,1.83
2023-04-04T03:06:20.098Z,1.77
2023-04-04T03:08:50.750Z,1.95
2023-04-04T03:11:21.729Z,1.75
2023-04-04T03:13:53.649Z,1.63
2023-04-04T03:16:27.618Z,1.42
2023-04-04T03:18:56.718Z,1.15
2023-04-04T03:21:26.116Z,1.60
2023-04-04T03:23:58.090Z,1.90
2023-04-04T03:26:29.565Z,1.70
2023-04-04T03:28:58.214Z,1.73
2023-04-04T03:31:28.298Z,1.90
2023-04-04T03:33:56.724Z,1.40
2023-04-04T03:36:26.132Z,1.85
2023-04-04T03:38:54.456Z,1.42
2023-04-04T03:41:23.116Z,1.80
2023-04-04T03:43:51.569Z,1.80
2023-04-04T03:46:20.549Z,1.65
2023-04-04T03:48:50.002Z,1.83
2023-04-04T03:51:25.799Z,2.20
2023-04-04T03:53:54.395Z,1.85
2023-04-04T03:56:23.141Z,1.88
2023-04-04T03:58:51.785Z,1.73
2023-04-04T04:01:23.536Z,2.13
2023-04-04T04:03:52.018Z,1.70
2023-04-04T04:06:20.894Z,2.03
2023-04-04T04:08:49.952Z,1.35
2023-04-04T04:11:20.165Z,1.30
2023-04-04T04:13:48.796Z,1.70
2023-04-04T04:16:18.156Z,1.40
2023-04-04T04:18:47.244Z,1.95
2023-04-04T04:21:23.225Z,2.08
2023-04-04T04:23:52.077Z,1.17
2023-04-04T04:26:21.744Z,1.20
2023-04-04T04:28:50.406Z,1.50
2023-04-04T04:31:27.425Z,1.55
2023-04-04T04:33:58.209Z,1.92
2023-04-04T04:36:31.340Z,1.80
2023-04-04T04:39:15.461Z,1.83
2023-04-04T04:41:56.912Z,1.25
2023-04-04T04:44:26.580Z,2.22
2023-04-04T04:46:58.358Z,1.40
2023-04-04T04:49:27.684Z,1.60
2023-04-04T04:51:57.360Z,1.60
2023-04-04T04:54:26.600Z,1.75
2023-04-04T04:56:57.269Z,1.77
2023-04-04T04:59:27.571Z,1.40
2023-04-04T05:01:56.985Z,1.48
2023-04-04T05:04:27.675Z,1.15
2023-04-04T05:07:08.678Z,1.42
2023-04-04T05:09:37.437Z,1.83
2023-04-04T05:12:08.085Z,1.50
2023-04-04T05:14:44.097Z,1.40
2023-04-04T05:17:13.374Z,1.88
2023-04-04T05:19:42.522Z,1.30
2023-04-04T05:22:17.093Z,1.30
2023-04-04T05:24:49.872Z,1.60
2023-04-04T05:27:23.406Z,1.65
2023-04-04T05:29:58.417Z,2.00
2023-04-04T05:32:35.830Z,1.45
2023-04-04T05:35:11.215Z,1.80
2023-04-04T05:37:41.287Z,1.45
2023-04-04T05:40:14.237Z,2.20
2023-04-04T05:42:56.379Z,2.20
2023-04-04T05:45:28.354Z,1.35
2023-04-04T05:47:58.712Z,1.50
2023-04-04T05:50:31.814Z,1.52
2023-04-04T05:53:05.050Z,1.60
2023-04-04T05:55:34.043Z,1.77
2023-04-04T05:58:03.696Z,1.38
2023-04-04T06:00:44.500Z,1.80
2023-04-04T06:03:14.621Z,1.65
2023-04-04T06:05:44.935Z,1.42
2023-04-04T06:08:14.590Z,2.13
2023-04-04T06:10:43.232Z,1.30
2023-04-04T06:13:12.249Z,1.33
2023-04-04T06:15:43.295Z,1.73
2023-04-04T06:18:12.764Z,2.40
2023-04-04T06:20:41.932Z,1.73
2023-04-04T06:23:11.531Z,2.03
2023-04-04T06:25:44.538Z,2.08
2023-04-04T06:28:16.218Z,1.42
2023-04-04T06:30:47.310Z,1.95
2023-04-04T06:33:18.842Z,1.38
2023-04-04T06:35:50.093Z,1.27
2023-04-04T06:38:19.799Z,2.00
2023-04-04T06:40:48.639Z,1.95
2023-04-04T06:43:17.696Z,1.70
2023-04-04T06:45:48.171Z,1.60
2023-04-04T06:48:17.316Z,1.60
2023-04-04T06:50:46.493Z,2.42
2023-04-04T06:53:18.096Z,1.77
2023-04-04T06:55:46.735Z,1.88
2023-04-04T06:58:15.668Z,1.55
2023-04-04T07:00:44.358Z,1.88
2023-04-04T07:03:13.424Z,1.75
2023-04-04T07:05:42.390Z,1.95
2023-04-04T07:08:11.860Z,1.75
2023-04-04T07:10:41.395Z,1.48
2023-04-04T07:13:11.500Z,1.20
2023-04-04T07:15:40.183Z,1.70
2023-04-04T07:18:09.335Z,2.00
2023-04-04T07:20:38.219Z,1.92
2023-04-04T07:23:07.706Z,1.90
2023-04-04T07:25:36.427Z,1.80
2023-04-04T07:28:12.330Z,1.52
2023-04-04T07:30:42.240Z,1.50
2023-04-04T07:33:12.023Z,1.33
2023-04-04T07:35:40.921Z,1.92
2023-04-04T07:38:10.562Z,1.58
2023-04-04T07:40:39.352Z,1.20
2023-04-04T07:43:08.629Z,1.42
2023-04-04T07:45:37.393Z,1.70
2023-04-04T07:48:07.068Z,1.13
2023-04-04T07:50:35.763Z,1.83
2023-04-04T07:53:04.745Z,1.60
2023-04-04T07:55:33.335Z,1.10
2023-04-04T07:58:02.777Z,1.40
2023-04-04T08:00:31.728Z,1.70
2023-04-04T08:03:01.917Z,1.50
2023-04-04T08:05:30.669Z,1.20
2023-04-04T08:07:59.792Z,2.08
2023-04-04T08:10:28.378Z,1.30
2023-04-04T08:12:57.431Z,1.80
2023-04-04T08:15:25.949Z,1.48
2023-04-04T08:17:56.255Z,1.50
2023-04-04T08:20:24.829Z,1.42
2023-04-04T08:22:53.871Z,1.05
2023-04-04T08:25:22.408Z,1.63
2023-04-04T08:27:51.260Z,1.65
2023-04-04T08:30:20.009Z,1.60
2023-04-04T08:32:48.968Z,0.95
2023-04-04T08:35:17.709Z,1.50
2023-04-04T08:37:46.930Z,1.45
2023-04-04T08:40:15.975Z,1.02
2023-04-04T08:42:46.391Z,1.45
2023-04-04T08:45:18.731Z,1.30
2023-04-04T08:47:51.153Z,1.27
2023-04-04T08:50:19.549Z,1.45
2023-04-04T08:52:48.294Z,1.73
2023-04-04T08:55:16.794Z,1.17
2023-04-04T08:57:45.549Z,1.75
2023-04-04T09:00:17.041Z,1.70
2023-04-04T09:03:27.752Z,1.27
2023-04-04T09:05:56.655Z,1.42
2023-04-04T09:08:25.684Z,1.50
2023-04-04T09:10:54.076Z,1.20
2023-04-04T09:13:23.069Z,1.33
2023-04-04T09:15:54.356Z,1.40
2023-04-04T09:18:23.278Z,1.23
2023-04-04T09:20:51.767Z,1.60
2023-04-04T09:23:21.205Z,1.45
2023-04-04T09:28:24.445Z,1.30
2023-04-04T09:30:53.256Z,1.77
2023-04-04T09:33:24.171Z,1.73
2023-04-04T09:35:59.022Z,1.38
2023-04-04T09:38:29.242Z,1.40
2023-04-04T09:40:57.955Z,1.77
2023-04-04T09:43:26.893Z,1.60
2023-04-04T09:45:55.486Z,1.33
2023-04-04T09:48:29.056Z,1.40
2023-04-04T09:51:01.011Z,1.90
2023-04-04T09:53:29.990Z,1.30
2023-04-04T09:55:58.528Z,1.08
2023-04-04T09:58:29.000Z,1.52
2023-04-04T10:01:02.189Z,1.42
2023-04-04T10:03:31.329Z,1.77
2023-04-04T10:06:07.761Z,1.15
2023-04-04T10:08:42.068Z,1.58
2023-04-04T10:11:12.246Z,1.33
2023-04-04T10:13:42.390Z,1.40
2023-04-04T10:16:12.302Z,1.50
2023-04-04T10:18:41.708Z,1.88
2023-04-04T10:23:42.699Z,1.63
2023-04-04T10:26:11.986Z,1.65
2023-04-04T10:28:42.685Z,1.20
2023-04-04T10:31:25.653Z,1.08
2023-04-04T10:37:07.424Z,1.85
2023-04-04T10:39:47.284Z,1.60
2023-04-04T10:42:19.020Z,1.95
2023-04-04T10:44:47.849Z,1.35
2023-04-04T10:47:22.071Z,2.17
2023-04-04T10:49:51.924Z,2.38
2023-04-04T10:52:23.015Z,1.85
2023-04-04T10:54:57.774Z,1.88
2023-04-04T10:57:26.275Z,1.92
2023-04-04T11:00:13.232Z,1.70
2023-04-04T11:02:58.593Z,2.10
2023-04-04T11:05:42.665Z,1.73
2023-04-04T11:08:14.516Z,2.53
2023-04-04T11:10:45.472Z,2.03
2023-04-04T11:13:35.703Z,2.30
2023-04-04T11:16:11.523Z,2.00
2023-04-04T11:18:43.851Z,2.38
2023-04-04T11:21:18.818Z,2.30
2023-04-04T11:23:50.305Z,2.38
2023-04-04T11:26:20.366Z,2.45
2023-04-04T11:28:48.873Z,2.35
2023-04-04T11:31:23.680Z,2.40
2023-04-04T11:34:05.165Z,2.30
2023-04-04T11:36:40.689Z,2.42
2023-04-04T11:39:31.323Z,2.67
2023-04-04T11:42:14.184Z,2.22
2023-04-04T11:45:07.468Z,2.10
2023-04-04T11:47:36.493Z,1.90
2023-04-04T11:50:09.733Z,2.42
2023-04-04T11:52:38.782Z,2.97
2023-04-04T11:55:20.214Z,2.50
2023-04-04T11:57:51.621Z,2.35
2023-04-04T12:00:33.480Z,2.30
2023-04-04T12:03:02.397Z,2.40
2023-04-04T12:05:31.639Z,2.28
2023-04-04T12:08:02.645Z,2.10
2023-04-04T12:10:34.938Z,2.20
2023-04-04T12:13:07.539Z,2.60
2023-04-04T12:15:37.137Z,2.27
2023-04-04T12:18:09.478Z,2.20
2023-04-04T12:20:41.728Z,2.10
2023-04-04T12:23:10.687Z,2.28
2023-04-04T12:25:40.676Z,2.53
2023-04-04T12:28:09.751Z,2.22
2023-04-04T12:30:39.358Z,2.33
2023-04-04T12:33:08.160Z,2.95
2023-04-04T12:35:36.711Z,1.90
2023-04-04T12:38:11.268Z,2.80
2023-04-04T12:40:39.830Z,1.67
2023-04-04T12:43:09.225Z,2.10
2023-04-04T12:45:41.675Z,2.88
2023-04-04T12:48:15.146Z,2.10
2023-04-04T12:50:54.354Z,2.35
2023-04-04T12:58:26.212Z,2.10
2023-04-04T13:00:55.666Z,1.98
2023-04-04T13:03:25.150Z,2.58
2023-04-04T13:05:53.972Z,2.50
2023-04-04T13:08:23.145Z,2.80
2023-04-04T13:11:03.910Z,2.28
2023-04-04T13:13:34.558Z,2.90
2023-04-04T13:16:14.910Z,2.60
2023-04-04T13:18:44.417Z,2.50
2023-04-04T13:21:13.590Z,2.42
2023-04-04T13:23:42.433Z,2.65
2023-04-04T13:26:11.497Z,2.85
2023-04-04T13:28:40.594Z,3.20
2023-04-04T13:31:10.249Z,2.85
2023-04-04T13:33:39.135Z,2.63
2023-04-04T13:36:07.810Z,3.40
2023-04-04T13:38:36.491Z,2.90
2023-04-04T13:41:04.859Z,2.90
2023-04-04T13:43:33.548Z,3.20
2023-04-04T13:46:01.932Z,2.67
2023-04-04T13:48:31.383Z,2.95
2023-04-04T13:50:59.836Z,2.33
2023-04-04T13:53:28.756Z,3.55
2023-04-04T13:56:17.222Z,2.92
2023-04-04T13:58:46.566Z,3.17
2023-04-04T14:01:14.899Z,3.80
2023-04-04T14:03:43.764Z,2.90
2023-04-04T14:06:12.671Z,3.28
2023-04-04T14:08:41.340Z,3.60
2023-04-04T14:11:09.716Z,2.97
2023-04-04T14:13:38.326Z,3.35
2023-04-04T14:16:08.784Z,3.58
2023-04-04T14:18:37.688Z,3.22
2023-04-04T14:21:06.521Z,3.22
2023-04-04T14:23:35.399Z,3.40
2023-04-04T14:26:04.664Z,3.08
2023-04-04T14:28:33.901Z,3.65
2023-04-04T14:31:02.354Z,3.67
2023-04-04T14:33:31.448Z,3.33
2023-04-04T14:36:00.082Z,2.45
2023-04-04T14:38:30.541Z,2.80
2023-04-04T14:41:01.154Z,3.25
2023-04-04T14:43:29.939Z,2.67
2023-04-04T14:45:58.325Z,3.10
2023-04-04T14:48:27.251Z,3.28
2023-04-04T14:50:55.625Z,3.65
2023-04-04T14:53:24.319Z,2.95
2023-04-04T14:55:53.510Z,3.47
2023-04-04T14:58:22.330Z,4.32
2023-04-04T15:00:50.905Z,2.75
2023-04-04T15:03:19.680Z,2.92
2023-04-04T15:05:49.314Z,2.90
2023-04-04T15:08:18.105Z,2.88
2023-04-04T15:10:46.557Z,2.88
2023-04-04T15:13:15.241Z,3.42
2023-04-04T15:15:43.756Z,2.58
2023-04-04T15:18:12.635Z,2.85
2023-04-04T15:20:41.083Z,2.70
2023-04-04T15:23:09.901Z,3.17
2023-04-04T15:25:38.415Z,3.35
2023-04-04T15:28:07.207Z,3.03
2023-04-04T15:30:35.610Z,3.65
2023-04-04T15:33:04.561Z,2.85
2023-04-04T15:35:33.291Z,3.40
2023-04-04T15:38:02.111Z,3.55
2023-04-04T15:40:30.593Z,3.40
2023-04-04T15:42:59.267Z,3.33
2023-04-04T15:45:27.830Z,3.35
2023-04-04T15:47:56.773Z,2.92
2023-04-04T15:50:25.350Z,3.85
2023-04-04T15:52:54.332Z,3.33
2023-04-04T15:55:22.892Z,3.28
2023-04-04T15:57:51.691Z,2.90
2023-04-04T16:00:20.440Z,3.22
2023-04-04T16:02:49.216Z,2.63
2023-04-04T16:05:17.986Z,3.20
2023-04-04T16:07:46.948Z,2.60
2023-04-04T16:10:15.661Z,3.72
2023-04-04T16:12:44.841Z,3.50
2023-04-04T16:15:13.707Z,4.03
2023-04-04T16:17:42.980Z,3.10
2023-04-04T16:20:12.242Z,3.25
2023-04-04T16:22:41.106Z,3.28
2023-04-04T16:25:09.957Z,3.20
2023-04-04T16:27:38.918Z,3.78
2023-04-04T16:30:08.508Z,3.15
2023-04-04T16:32:37.595Z,3.13
2023-04-04T16:35:06.834Z,2.67
2023-04-04T16:37:35.674Z,2.78
2023-04-04T16:40:05.367Z,2.67
2023-04-04T16:42:34.425Z,2.50
2023-04-04T16:45:03.105Z,2.75
2023-04-04T16:47:32.164Z,2.40
2023-04-04T16:50:00.697Z,2.60
2023-04-04T16:52:29.675Z,2.13
2023-04-04T16:54:58.157Z,2.05
2023-04-04T16:57:27.485Z,1.52
2023-04-04T16:59:55.990Z,2.25
2023-04-04T17:02:24.839Z,2.22
2023-04-04T17:04:53.749Z,2.22
2023-04-04T17:07:22.942Z,2.40
2023-04-04T17:09:52.178Z,2.60
2023-04-04T17:12:21.737Z,2.42
2023-04-04T17:14:50.155Z,2.28
2023-04-04T17:17:19.552Z,2.63
2023-04-04T17:19:48.023Z,2.63
2023-04-04T17:22:16.912Z,2.20
2023-04-04T17:24:45.700Z,2.58
2023-04-04T17:27:14.531Z,3.03
2023-04-04T17:29:43.168Z,3.03
2023-04-04T17:32:12.196Z,2.58
2023-04-04T17:34:41.094Z,2.75
2023-04-04T17:37:11.811Z,2.10
2023-04-04T17:39:40.372Z,1.77
2023-04-04T17:42:09.470Z,2.20
2023-04-04T17:44:38.302Z,2.45
2023-04-04T17:47:07.084Z,1.63
2023-04-04T17:49:35.716Z,2.60
2023-04-04T17:52:05.119Z,1.95
2023-04-04T17:54:34.118Z,2.22
2023-04-04T17:57:03.643Z,2.30
2023-04-04T17:59:32.384Z,2.72
2023-04-04T18:02:01.461Z,2.20
2023-04-04T18:04:30.047Z,2.10
2023-04-04T18:06:59.092Z,2.17
2023-04-04T18:09:29.123Z,1.73
2023-04-04T18:11:58.554Z,3.28
2023-04-04T18:14:27.377Z,2.17
2023-04-04T18:16:56.210Z,1.85
2023-04-04T18:19:24.934Z,1.77
2023-04-04T18:22:00.114Z,2.38
2023-04-04T18:24:29.368Z,2.00
2023-04-04T18:26:58.616Z,2.30
2023-04-04T18:29:27.381Z,2.17
2023-04-04T18:31:56.268Z,2.30
2023-04-04T18:34:24.964Z,3.03
2023-04-04T18:36:53.941Z,2.33
2023-04-04T18:39:22.388Z,2.92
2023-04-04T18:41:51.561Z,3.03
2023-04-04T18:44:21.454Z,2.97
2023-04-04T18:46:50.649Z,3.88
2023-04-04T18:49:19.401Z,3.10
2023-04-04T18:51:48.093Z,3.38
2023-04-04T18:54:16.519Z,3.00
2023-04-04T18:56:45.803Z,3.85
2023-04-04T18:59:15.040Z,4.00
2023-04-04T19:01:43.794Z,3.45
2023-04-04T19:04:12.257Z,2.80
2023-04-04T19:06:41.223Z,3.78
2023-04-04T19:09:09.957Z,3.60
2023-04-04T19:11:39.034Z,3.63
2023-04-04T19:14:09.252Z,3.15
2023-04-04T19:16:38.698Z,3.42
2023-04-04T19:19:07.521Z,3.65
2023-04-04T19:21:36.619Z,4.05
2023-04-04T19:24:06.749Z,4.57
2023-04-04T19:26:36.090Z,3.63
2023-04-04T19:29:05.703Z,3.60
2023-04-04T19:31:35.050Z,4.20
2023-04-04T19:34:03.925Z,4.85
2023-04-04T19:36:34.691Z,3.40
2023-04-04T19:39:04.014Z,4.38
2023-04-04T19:41:40.309Z,3.97
2023-04-04T19:44:23.184Z,3.47
2023-04-04T19:46:53.280Z,3.70
2023-04-04T19:49:24.538Z,3.95
2023-04-04T19:51:58.977Z,4.03
2023-04-04T19:54:40.931Z,4.18
2023-04-04T19:57:29.700Z,3.90
2023-04-04T20:00:17.976Z,3.60
2023-04-04T20:02:52.220Z,4.20
2023-04-04T20:05:32.524Z,3.97
2023-04-04T20:08:01.735Z,4.35
2023-04-04T20:10:38.405Z,4.03
2023-04-04T20:13:07.448Z,4.55
2023-04-04T20:15:48.328Z,5.03
2023-04-04T20:18:36.298Z,4.22
2023-04-04T20:21:10.665Z,4.53
2023-04-04T20:23:57.887Z,4.05
2023-04-04T20:26:59.673Z,4.63
2023-04-04T20:29:32.910Z,4.32
2023-04-04T20:32:08.846Z,4.25
2023-04-04T20:34:46.865Z,4.30
2023-04-04T20:37:22.409Z,3.97
2023-04-04T20:40:13.409Z,5.05
2023-04-04T20:42:42.205Z,4.07
2023-04-04T20:45:14.111Z,4.32
2023-04-04T20:47:53.062Z,4.60
2023-04-04T20:50:27.357Z,4.47
2023-04-04T20:53:03.785Z,5.18
2023-04-04T20:55:34.222Z,4.40
2023-04-04T20:58:28.370Z,4.43
2023-04-04T21:00:59.136Z,6.75
2023-04-04T21:03:34.545Z,5.70
2023-04-04T21:06:15.369Z,6.20
2023-04-04T21:08:45.895Z,6.88
2023-04-04T21:11:24.006Z,7.13
2023-04-04T21:13:52.465Z,7.38
2023-04-04T21:16:24.944Z,7.60
2023-04-04T21:18:59.485Z,6.97
2023-04-04T21:21:28.735Z,8.30
2023-04-04T21:24:01.201Z,7.32
2023-04-04T21:26:35.517Z,7.43
2023-04-04T21:29:18.744Z,7.55
2023-04-04T21:31:48.938Z,8.07
2023-04-04T21:34:22.745Z,8.07
2023-04-04T21:37:00.204Z,8.90
2023-04-04T21:39:29.946Z,7.38
2023-04-04T21:42:01.753Z,8.07
2023-04-04T21:44:31.402Z,7.65
2023-04-04T21:47:00.094Z,8.15
2023-04-04T21:49:28.801Z,6.88
2023-04-04T21:51:57.627Z,8.23
2023-04-04T21:54:26.113Z,6.72
2023-04-04T21:56:55.413Z,6.82
2023-04-04T21:59:24.053Z,8.27
2023-04-04T22:01:53.055Z,7.85
2023-04-04T22:04:21.670Z,5.97
2023-04-04T22:06:50.533Z,7.60
2023-04-04T22:09:22.852Z,6.78
2023-04-04T22:11:54.035Z,7.95
2023-04-04T22:14:22.570Z,7.18
2023-04-04T22:16:53.412Z,6.32
2023-04-04T22:19:23.822Z,6.50
2023-04-04T22:21:54.295Z,8.07
2023-04-04T22:24:23.119Z,7.20
2023-04-04T22:26:51.920Z,7.05
2023-04-04T22:29:20.432Z,7.00
2023-04-04T22:31:49.334Z,7.25
2023-04-04T22:34:17.829Z,6.93
2023-04-04T22:36:46.584Z,7.32
2023-04-04T22:39:16.433Z,7.90
2023-04-04T22:41:45.428Z,6.90
2023-04-04T22:44:14.247Z,7.47
2023-04-04T22:46:43.181Z,7.28
2023-04-04T22:49:13.646Z,7.13
2023-04-04T22:51:46.062Z,6.57
2023-04-04T22:54:17.471Z,6.20
2023-04-04T22:56:46.613Z,7.80
2023-04-04T22:59:15.551Z,6.43
2023-04-04T23:01:44.483Z,6.57
2023-04-04T23:04:13.569Z,6.10
2023-04-04T23:06:43.249Z,7.07
2023-04-04T23:09:11.697Z,6.43
2023-04-04T23:11:40.910Z,7.47
2023-04-04T23:14:09.855Z,5.78
2023-04-04T23:16:38.757Z,7.65
2023-04-04T23:19:07.725Z,6.18
2023-04-04T23:21:36.948Z,6.28
2023-04-04T23:24:07.174Z,6.63
2023-04-04T23:26:36.234Z,6.53
2023-04-04T23:29:05.970Z,6.95
2023-04-04T23:31:36.678Z,6.43
2023-04-04T23:34:05.205Z,6.55
2023-04-04T23:36:34.369Z,6.57
2023-04-04T23:39:04.287Z,5.88
2023-04-04T23:41:33.386Z,6.15
2023-04-04T23:44:02.357Z,6.78
2023-04-04T23:46:32.773Z,6.85
2023-04-04T23:49:02.281Z,7.03
2023-04-04T23:51:38.188Z,6.28
2023-04-04T23:54:08.189Z,6.18
2023-04-04T23:56:36.823Z,6.22
2023-04-04T23:59:06.336Z,6.07
